Time;durP1;ratioP1;P1;durP2;ratioP2;P2;SDS_P1;SDS_P2;PMS_P1;PMS_P2;Temp;Humidity;BMP_temperature;BMP_pressure;BME280_temperature;BME280_humidity;BME280_pressure;Samples;Min_cycle;Max_cycle;Signal;HPM_P1;HPM_P2
2024/04/04 00:01:15;;;;;;;2.00;1.30;;;10.80;99.90;;;;;;5056398;28;20212;-71
2024/04/04 00:03:42;;;;;;;2.97;1.37;;;10.70;99.90;;;;;;5057451;28;20318;-71
2024/04/04 00:06:08;;;;;;;2.17;1.07;;;10.60;99.90;;;;;;5055667;28;20204;-71
2024/04/04 00:08:35;;;;;;;3.90;1.20;;;10.70;99.90;;;;;;5055399;28;20206;-71
2024/04/04 00:11:08;;;;;;;2.27;1.40;;;10.60;99.90;;;;;;5054456;28;20594;-71
2024/04/04 00:13:36;;;;;;;2.83;1.67;;;10.60;99.90;;;;;;5057503;28;20200;-72
2024/04/04 00:16:03;;;;;;;3.20;1.30;;;10.70;99.90;;;;;;5054534;28;20553;-72
2024/04/04 00:18:30;;;;;;;2.70;1.40;;;10.60;99.90;;;;;;5054698;28;20277;-72
2024/04/04 00:20:56;;;;;;;1.30;1.20;;;10.70;99.90;;;;;;5055718;28;20311;-71
2024/04/04 00:23:22;;;;;;;1.97;1.20;;;10.70;99.90;;;;;;5054451;28;20319;-71
2024/04/04 00:25:48;;;;;;;5.50;1.53;;;10.70;99.90;;;;;;5054577;28;20212;-71
2024/04/04 00:28:15;;;;;;;3.30;1.80;;;10.60;99.90;;;;;;5054421;28;20633;-71
2024/04/04 00:30:42;;;;;;;4.20;1.27;;;10.60;99.90;;;;;;5053793;28;20713;-71
2024/04/04 00:33:10;;;;;;;2.77;1.30;;;10.60;99.90;;;;;;5055317;28;20215;-71
2024/04/04 00:35:35;;;;;;;1.57;1.30;;;10.60;99.90;;;;;;5054524;28;20692;-71
2024/04/04 00:38:02;;;;;;;4.73;1.57;;;10.60;99.90;;;;;;5054867;28;20208;-71
2024/04/04 00:40:34;;;;;;;2.83;1.27;;;10.60;99.90;;;;;;5054267;28;20236;-72
2024/04/04 00:43:01;;;;;;;2.17;1.60;;;10.60;99.90;;;;;;5054612;28;20208;-72
2024/04/04 00:45:27;;;;;;;2.93;1.60;;;10.60;99.90;;;;;;5079374;22;20208;-69
2024/04/04 00:47:55;;;;;;;3.43;1.60;;;10.60;99.90;;;;;;5055810;28;20215;-69
2024/04/04 00:50:22;;;;;;;2.83;1.80;;;10.50;99.90;;;;;;5054790;28;20204;-69
2024/04/04 00:52:49;;;;;;;3.30;1.60;;;10.50;99.90;;;;;;5055688;28;20203;-69
2024/04/04 00:55:16;;;;;;;4.93;1.47;;;10.50;99.90;;;;;;5054791;28;20208;-69
2024/04/04 00:57:44;;;;;;;2.63;1.57;;;10.50;99.90;;;;;;5035017;28;20215;-69
2024/04/04 01:00:13;;;;;;;4.33;1.80;;;10.50;99.90;;;;;;5036583;28;20212;-69
2024/04/04 01:02:40;;;;;;;2.13;1.17;;;10.50;99.90;;;;;;5034725;28;20211;-69
2024/04/04 01:05:07;;;;;;;3.77;1.40;;;10.50;99.90;;;;;;5034705;28;20216;-68
2024/04/04 01:07:35;;;;;;;3.10;1.70;;;10.50;99.90;;;;;;5034215;28;20232;-69
2024/04/04 01:10:05;;;;;;;2.27;1.37;;;10.50;99.90;;;;;;5034239;28;20205;-69
2024/04/04 01:12:32;;;;;;;1.97;1.73;;;10.60;99.90;;;;;;5034350;28;20200;-69
2024/04/04 01:14:58;;;;;;;1.80;1.60;;;10.50;99.90;;;;;;5036060;28;20209;-69
2024/04/04 01:17:25;;;;;;;3.57;1.70;;;10.50;99.90;;;;;;5034727;28;20231;-69
2024/04/04 01:19:51;;;;;;;3.27;1.93;;;10.50;99.90;;;;;;5034378;28;20220;-69
2024/04/04 01:22:20;;;;;;;2.47;1.60;;;10.50;99.90;;;;;;5035861;28;20209;-69
2024/04/04 01:24:47;;;;;;;1.80;1.40;;;10.40;99.90;;;;;;5035911;28;20709;-69
2024/04/04 01:27:14;;;;;;;3.53;1.60;;;10.40;99.90;;;;;;5035766;28;20717;-69
2024/04/04 01:29:40;;;;;;;2.23;1.87;;;10.40;99.90;;;;;;5035345;28;20240;-69
2024/04/04 01:32:07;;;;;;;1.87;1.20;;;10.30;99.90;;;;;;5034278;28;20239;-69
2024/04/04 01:34:33;;;;;;;2.47;1.70;;;10.30;99.90;;;;;;5033884;28;20295;-69
2024/04/04 01:37:00;;;;;;;3.07;1.50;;;10.30;99.90;;;;;;5034057;28;20462;-69
2024/04/04 01:39:26;;;;;;;5.47;1.50;;;10.30;99.90;;;;;;5034091;28;20232;-69
2024/04/04 01:41:55;;;;;;;2.37;1.80;;;10.20;99.90;;;;;;5034137;28;20201;-69
2024/04/04 01:44:21;;;;;;;3.13;1.40;;;10.20;99.90;;;;;;5032901;28;20781;-69
2024/04/04 01:46:49;;;;;;;2.00;1.60;;;10.20;99.90;;;;;;5033685;28;20237;-69
2024/04/04 01:49:15;;;;;;;2.67;1.60;;;10.20;99.90;;;;;;5034510;28;20678;-69
2024/04/04 01:51:42;;;;;;;4.20;2.20;;;10.10;99.90;;;;;;5035867;28;20201;-70
2024/04/04 01:54:10;;;;;;;2.87;2.00;;;10.10;99.90;;;;;;5033868;28;20751;-70
2024/04/04 01:56:37;;;;;;;2.70;1.80;;;10.10;99.90;;;;;;5037853;28;20251;-69
2024/04/04 01:59:04;;;;;;;2.63;2.00;;;10.10;99.90;;;;;;5039671;28;20220;-69
2024/04/04 02:01:31;;;;;;;3.50;1.90;;;10.10;99.90;;;;;;5036649;28;20247;-69
2024/04/04 02:03:56;;;;;;;2.27;1.77;;;10.10;99.90;;;;;;5033978;28;20239;-69
2024/04/04 02:06:23;;;;;;;4.63;2.30;;;10.10;99.90;;;;;;5034042;28;20304;-69
2024/04/04 02:08:49;;;;;;;3.13;2.10;;;10.00;99.90;;;;;;5033733;28;20216;-70
2024/04/04 02:11:16;;;;;;;2.27;2.00;;;10.00;99.90;;;;;;5034174;28;20263;-70
2024/04/04 02:13:42;;;;;;;5.33;2.43;;;9.90;99.90;;;;;;5033572;28;20296;-70
2024/04/04 02:16:10;;;;;;;3.93;2.70;;;9.90;99.90;;;;;;5034714;28;20315;-69
2024/04/04 02:18:37;;;;;;;5.33;2.73;;;9.90;99.90;;;;;;5033587;28;20209;-69
2024/04/04 02:21:05;;;;;;;3.30;2.33;;;10.00;99.90;;;;;;5033583;28;20200;-69
2024/04/04 02:23:31;;;;;;;3.50;2.73;;;10.10;99.90;;;;;;5033429;28;20233;-69
2024/04/04 02:25:58;;;;;;;10.20;2.67;;;10.00;99.90;;;;;;5033198;28;20279;-68
2024/04/04 02:28:24;;;;;;;3.57;2.23;;;10.00;99.90;;;;;;5033458;28;20301;-69
2024/04/04 02:30:51;;;;;;;5.23;2.50;;;10.00;99.90;;;;;;5033618;28;20209;-69
2024/04/04 02:33:18;;;;;;;3.17;1.80;;;10.00;99.90;;;;;;5033388;28;20239;-69
2024/04/04 02:35:53;;;;;;;3.20;2.40;;;10.10;99.90;;;;;;5033270;28;20224;-69
2024/04/04 02:38:18;;;;;;;2.40;2.03;;;10.10;99.90;;;;;;5035289;28;20196;-69
2024/04/04 02:40:45;;;;;;;3.07;2.07;;;10.10;99.90;;;;;;5033490;28;20212;-69
2024/04/04 02:43:11;;;;;;;4.83;1.83;;;10.10;99.90;;;;;;5033264;28;20323;-69
2024/04/04 02:45:38;;;;;;;3.13;1.73;;;10.00;99.90;;;;;;5033392;28;20315;-69
2024/04/04 02:48:05;;;;;;;3.30;2.00;;;10.10;99.90;;;;;;5033669;28;20710;-69
2024/04/04 02:50:33;;;;;;;2.30;1.63;;;10.10;99.90;;;;;;5034876;28;20212;-69
2024/04/04 02:52:59;;;;;;;4.07;1.90;;;10.10;99.90;;;;;;5035088;28;20209;-70
2024/04/04 02:55:25;;;;;;;3.33;1.70;;;10.10;99.90;;;;;;5036433;28;20293;-69
2024/04/04 02:57:51;;;;;;;2.63;1.60;;;10.10;99.90;;;;;;5037753;28;20217;-69
2024/04/04 03:00:18;;;;;;;1.40;1.30;;;10.20;99.90;;;;;;5037313;28;20204;-69
2024/04/04 03:02:44;;;;;;;2.17;1.60;;;10.20;99.90;;;;;;5038831;28;20248;-69
2024/04/04 03:05:11;;;;;;;3.07;1.60;;;10.20;99.90;;;;;;5038650;28;20648;-69
2024/04/04 03:07:39;;;;;;;1.67;1.40;;;10.20;99.90;;;;;;5037000;28;20228;-69
2024/04/04 03:10:07;;;;;;;2.20;1.50;;;10.20;99.90;;;;;;5036697;28;20666;-69
2024/04/04 03:12:33;;;;;;;3.03;1.50;;;10.20;99.90;;;;;;5036542;28;20673;-69
2024/04/04 03:14:59;;;;;;;4.27;1.40;;;10.20;99.90;;;;;;5036733;28;20211;-70
2024/04/04 03:17:27;;;;;;;2.10;1.23;;;10.20;99.90;;;;;;5036938;28;20351;-69
2024/04/04 03:19:53;;;;;;;1.40;1.30;;;10.20;99.90;;;;;;5036921;28;20201;-70
2024/04/04 03:22:20;;;;;;;1.77;1.33;;;10.20;99.90;;;;;;5036379;28;20782;-69
2024/04/04 03:24:48;;;;;;;1.30;1.20;;;10.20;99.90;;;;;;5036271;28;20233;-70
2024/04/04 03:27:14;;;;;;;3.33;1.43;;;10.20;99.90;;;;;;5036320;28;20323;-70
2024/04/04 03:29:41;;;;;;;2.43;1.00;;;10.20;99.90;;;;;;5036165;28;20656;-70
2024/04/04 03:32:07;;;;;;;1.70;1.30;;;10.30;99.90;;;;;;5035742;28;20300;-70
2024/04/04 03:34:33;;;;;;;3.17;0.90;;;10.30;99.90;;;;;;5035485;28;20291;-69
2024/04/04 03:36:59;;;;;;;2.03;1.03;;;10.40;99.90;;;;;;5035930;28;20239;-69
2024/04/04 03:39:26;;;;;;;2.53;0.90;;;10.50;99.90;;;;;;5036278;28;20204;-69
2024/04/04 03:41:55;;;;;;;5.40;1.20;;;10.60;99.90;;;;;;5037801;28;20217;-70
2024/04/04 03:44:21;;;;;;;2.60;1.20;;;10.70;99.90;;;;;;5035730;28;20233;-70
2024/04/04 03:46:48;;;;;;;2.20;1.07;;;10.80;99.90;;;;;;5037051;28;20294;-69
2024/04/04 03:49:14;;;;;;;1.97;1.00;;;10.90;99.90;;;;;;5035280;28;20581;-69
2024/04/04 03:51:40;;;;;;;5.23;1.53;;;10.90;99.90;;;;;;5035385;28;20299;-69
2024/04/04 03:54:06;;;;;;;2.57;0.87;;;10.90;99.90;;;;;;5036621;28;20291;-68
2024/04/04 03:56:33;;;;;;;2.00;0.90;;;10.90;99.90;;;;;;5035069;28;20319;-68
2024/04/04 03:59:00;;;;;;;1.20;0.80;;;10.90;99.90;;;;;;5035699;28;20215;-68
2024/04/04 04:01:27;;;;;;;2.63;1.00;;;10.90;99.90;;;;;;5036347;28;20209;-69
2024/04/04 04:03:53;;;;;;;0.97;0.90;;;11.00;99.90;;;;;;5035701;28;20319;-69
2024/04/04 04:06:20;;;;;;;2.43;0.63;;;11.00;99.90;;;;;;5034886;28;20320;-68
2024/04/04 04:08:46;;;;;;;0.93;0.57;;;11.00;99.90;;;;;;5036545;28;20204;-68
2024/04/04 04:11:13;;;;;;;1.57;0.70;;;11.00;99.90;;;;;;5036321;28;20271;-67
2024/04/04 04:13:38;;;;;;;4.20;1.17;;;11.00;99.90;;;;;;5035150;28;20205;-70
2024/04/04 04:16:08;;;;;;;1.40;1.03;;;11.10;99.90;;;;;;5035105;28;20316;-70
2024/04/04 04:18:34;;;;;;;1.97;0.90;;;11.10;99.90;;;;;;5035251;28;20205;-69
2024/04/04 04:21:21;;;;;;;1.63;0.67;;;11.10;99.90;;;;;;5034911;28;20205;-69
2024/04/04 04:23:49;;;;;;;2.43;0.80;;;11.10;99.90;;;;;;5035776;28;20228;-70
2024/04/04 04:26:17;;;;;;;1.83;0.70;;;11.00;99.90;;;;;;5034918;28;20286;-68
2024/04/04 04:28:44;;;;;;;1.07;0.77;;;10.90;99.90;;;;;;5034895;28;20572;-69
2024/04/04 04:31:24;;;;;;;1.27;0.90;;;10.80;99.90;;;;;;5035137;28;20301;-70
2024/04/04 04:33:51;;;;;;;2.10;1.03;;;10.80;99.90;;;;;;5034960;28;20193;-67
2024/04/04 04:36:17;;;;;;;1.73;0.80;;;10.80;99.90;;;;;;5035013;28;20232;-69
2024/04/04 04:38:44;;;;;;;3.30;1.00;;;10.70;99.90;;;;;;5034911;28;20200;-69
2024/04/04 04:41:10;;;;;;;2.33;1.00;;;10.70;99.90;;;;;;5035115;28;20287;-69
2024/04/04 04:43:38;;;;;;;1.13;0.83;;;10.70;99.90;;;;;;5035214;28;20229;-68
2024/04/04 04:46:05;;;;;;;2.30;1.10;;;10.70;99.90;;;;;;5035215;28;20237;-69
2024/04/04 04:48:33;;;;;;;4.07;1.13;;;10.60;99.90;;;;;;5035221;28;20729;-68
2024/04/04 04:50:59;;;;;;;0.93;0.90;;;10.60;99.90;;;;;;5034886;28;20209;-68
2024/04/04 04:53:26;;;;;;;2.67;1.27;;;10.60;99.90;;;;;;5034688;28;20648;-68
2024/04/04 04:55:52;;;;;;;2.20;1.20;;;10.60;99.90;;;;;;5035522;28;20664;-68
2024/04/04 04:58:20;;;;;;;1.20;0.93;;;10.60;99.90;;;;;;5035454;28;20204;-68
2024/04/04 05:00:46;;;;;;;1.30;0.90;;;10.50;99.90;;;;;;5035443;28;20223;-69
2024/04/04 05:03:13;;;;;;;2.57;1.10;;;10.50;99.90;;;;;;5035743;28;20209;-69
2024/04/04 05:05:40;;;;;;;1.97;0.90;;;10.60;99.90;;;;;;5036010;28;20292;-69
2024/04/04 05:08:08;;;;;;;1.27;0.80;;;10.50;99.90;;;;;;5034097;28;20677;-69
2024/04/04 05:10:33;;;;;;;1.07;0.70;;;10.60;99.90;;;;;;5034826;28;20331;-69
2024/04/04 05:13:00;;;;;;;1.67;0.90;;;10.60;99.90;;;;;;5034441;28;20673;-69
2024/04/04 05:15:26;;;;;;;3.83;1.10;;;10.60;99.90;;;;;;5033620;28;20231;-69
2024/04/04 05:17:53;;;;;;;5.43;1.13;;;10.70;99.90;;;;;;5034009;28;20209;-70
2024/04/04 05:20:19;;;;;;;1.37;1.00;;;10.70;99.90;;;;;;5033894;28;20219;-69
2024/04/04 05:22:47;;;;;;;1.53;0.80;;;10.70;99.90;;;;;;5034104;28;20287;-69
2024/04/04 05:25:14;;;;;;;3.47;1.10;;;10.70;99.90;;;;;;5034124;28;20319;-69
2024/04/04 05:27:41;;;;;;;3.57;1.10;;;10.70;99.90;;;;;;5034046;28;20231;-68
2024/04/04 05:30:10;;;;;;;2.50;0.90;;;10.80;99.90;;;;;;5034315;28;20204;-69
2024/04/04 05:32:37;;;;;;;1.80;0.97;;;10.80;99.90;;;;;;5034711;28;20274;-70
2024/04/04 05:35:04;;;;;;;2.77;0.97;;;10.70;99.90;;;;;;5034401;28;20617;-70
2024/04/04 05:37:31;;;;;;;3.20;0.90;;;10.80;99.90;;;;;;5033786;28;20225;-67
2024/04/04 05:39:58;;;;;;;4.00;1.10;;;10.80;99.90;;;;;;5033889;28;20590;-67
2024/04/04 05:42:28;;;;;;;2.17;1.30;;;10.80;99.90;;;;;;5033695;28;20212;-67
2024/04/04 05:44:54;;;;;;;3.67;1.33;;;10.90;99.90;;;;;;5035373;28;20220;-68
2024/04/04 05:47:21;;;;;;;1.03;0.90;;;10.90;99.90;;;;;;5033584;28;20801;-68
2024/04/04 05:49:47;;;;;;;2.30;0.90;;;10.90;99.90;;;;;;5034502;28;20295;-68
2024/04/04 05:52:14;;;;;;;3.13;1.17;;;10.90;99.90;;;;;;5034598;28;20204;-68
2024/04/04 05:54:40;;;;;;;1.67;1.03;;;10.90;99.90;;;;;;5034065;28;20301;-68
2024/04/04 05:57:08;;;;;;;2.10;1.00;;;10.90;99.90;;;;;;5033747;28;20644;-68
2024/04/04 05:59:34;;;;;;;2.53;0.90;;;10.90;99.90;;;;;;5033706;28;20543;-67
2024/04/04 06:02:01;;;;;;;1.23;0.83;;;10.90;99.90;;;;;;5033229;28;20302;-67
2024/04/04 06:04:27;;;;;;;1.47;0.70;;;10.90;99.90;;;;;;5033350;28;20233;-67
2024/04/04 06:06:54;;;;;;;1.10;0.80;;;10.90;99.90;;;;;;5033635;28;20251;-67
2024/04/04 06:09:20;;;;;;;1.90;1.20;;;11.00;99.90;;;;;;5033702;28;20295;-67
2024/04/04 06:11:47;;;;;;;2.23;1.00;;;11.00;99.90;;;;;;5033414;28;20296;-67
2024/04/04 06:14:14;;;;;;;1.47;1.37;;;11.00;99.90;;;;;;5033992;28;20240;-67
2024/04/04 06:16:41;;;;;;;2.50;1.03;;;11.10;99.90;;;;;;5033345;28;20268;-67
2024/04/04 06:19:07;;;;;;;2.10;1.00;;;11.10;99.90;;;;;;5034802;28;20239;-67
2024/04/04 06:21:35;;;;;;;2.40;0.80;;;11.20;99.90;;;;;;5034772;28;20208;-68
2024/04/04 06:24:01;;;;;;;2.73;1.10;;;11.20;99.90;;;;;;5033628;28;20233;-68
2024/04/04 06:26:29;;;;;;;1.93;0.90;;;11.20;99.90;;;;;;5034175;28;20251;-68
2024/04/04 06:28:55;;;;;;;2.20;1.10;;;11.20;99.90;;;;;;5035559;28;20255;-68
2024/04/04 06:31:24;;;;;;;2.27;1.07;;;11.30;99.90;;;;;;5038331;28;20743;-68
2024/04/04 06:33:50;;;;;;;2.43;1.20;;;11.40;99.90;;;;;;5036876;28;20745;-67
2024/04/04 06:36:17;;;;;;;2.07;1.40;;;11.50;99.90;;;;;;5036953;28;20315;-68
2024/04/04 06:38:43;;;;;;;4.80;1.30;;;11.60;99.90;;;;;;5037270;28;20222;-68
2024/04/04 06:41:10;;;;;;;2.83;1.47;;;11.70;99.90;;;;;;5036800;28;20740;-68
2024/04/04 06:43:36;;;;;;;2.57;1.30;;;11.80;99.90;;;;;;5036570;28;20243;-67
2024/04/04 06:46:03;;;;;;;2.80;1.47;;;11.90;99.90;;;;;;5036357;28;20272;-68
2024/04/04 06:48:30;;;;;;;4.33;1.37;;;11.90;99.90;;;;;;5037388;28;20197;-68
2024/04/04 06:50:59;;;;;;;1.83;1.23;;;11.90;99.90;;;;;;5075816;22;20394;-72
2024/04/04 06:53:25;;;;;;;2.90;1.40;;;12.00;99.90;;;;;;5056409;28;20208;-72
2024/04/04 06:55:52;;;;;;;4.67;1.00;;;12.10;99.90;;;;;;5056525;28;20208;-72
2024/04/04 06:58:18;;;;;;;4.33;1.40;;;12.30;99.90;;;;;;5056490;28;20295;-71
2024/04/04 07:00:45;;;;;;;3.27;1.07;;;12.40;99.90;;;;;;5056298;28;20676;-71
2024/04/04 07:03:12;;;;;;;2.80;1.23;;;12.60;99.90;;;;;;5055946;28;20590;-71
2024/04/04 07:05:40;;;;;;;4.47;1.30;;;12.70;99.90;;;;;;5056271;28;20256;-71
2024/04/04 07:08:08;;;;;;;2.63;1.07;;;12.70;99.90;;;;;;5056213;28;20208;-71
2024/04/04 07:10:36;;;;;;;2.20;1.13;;;12.80;99.90;;;;;;5056138;28;20275;-68
2024/04/04 07:13:02;;;;;;;4.20;1.57;;;12.80;99.90;;;;;;5055964;28;20303;-73
2024/04/04 07:15:29;;;;;;;2.20;0.97;;;12.90;99.90;;;;;;5055917;28;20269;-71
2024/04/04 07:17:55;;;;;;;2.93;1.10;;;13.10;99.90;;;;;;5056208;28;20208;-72
2024/04/04 07:20:22;;;;;;;1.43;1.00;;;13.30;99.90;;;;;;5055866;28;20311;-73
2024/04/04 07:22:49;;;;;;;4.37;1.40;;;13.40;99.90;;;;;;5055843;28;20214;-73
2024/04/04 07:25:16;;;;;;;2.40;1.00;;;13.60;99.90;;;;;;5056068;28;20232;-73
2024/04/04 07:27:42;;;;;;;3.93;1.63;;;13.80;99.90;;;;;;5055687;28;20251;-73
2024/04/04 07:30:11;;;;;;;4.63;1.50;;;13.90;99.90;;;;;;5056074;28;20267;-73
2024/04/04 07:32:36;;;;;;;4.40;1.13;;;14.00;99.90;;;;;;5055547;28;20211;-73
2024/04/04 07:35:03;;;;;;;5.37;1.73;;;14.00;99.90;;;;;;5055901;28;20210;-73
2024/04/04 07:37:29;;;;;;;3.00;1.58;;;14.00;99.90;;;;;;5055367;28;20208;-73
2024/04/04 07:39:59;;;;;;;5.38;1.52;;;14.00;99.90;;;;;;5055860;28;20224;-73
2024/04/04 07:42:25;;;;;;;3.40;1.90;;;14.10;99.90;;;;;;5055927;28;20212;-73
2024/04/04 07:44:52;;;;;;;5.95;1.63;;;14.10;99.90;;;;;;5055345;28;20693;-73
2024/04/04 07:47:17;;;;;;;7.43;1.45;;;14.10;99.90;;;;;;5055821;28;20298;-73
2024/04/04 07:49:44;;;;;;;4.90;1.38;;;14.10;99.90;;;;;;5055478;28;20323;-72
2024/04/04 07:52:11;;;;;;;3.28;1.45;;;14.10;99.90;;;;;;5055614;28;20279;-73
2024/04/04 07:54:39;;;;;;;4.57;1.37;;;14.10;99.90;;;;;;5055928;28;20200;-72
2024/04/04 07:57:06;;;;;;;5.43;1.42;;;14.20;99.90;;;;;;5055456;28;20204;-73
2024/04/04 07:59:33;;;;;;;3.90;1.60;;;14.10;99.90;;;;;;5055394;28;20228;-73
2024/04/04 08:01:59;;;;;;;8.55;2.33;;;14.10;99.90;;;;;;5055304;28;20584;-73
2024/04/04 08:04:26;;;;;;;4.20;1.42;;;14.20;99.90;;;;;;5055048;28;20701;-73
2024/04/04 08:06:52;;;;;;;4.70;1.40;;;14.10;99.90;;;;;;5054901;28;20303;-73
2024/04/04 08:09:19;;;;;;;2.90;1.53;;;13.90;99.90;;;;;;5055084;28;20271;-73
2024/04/04 08:11:45;;;;;;;5.07;1.42;;;13.80;99.90;;;;;;5055439;28;20208;-73
2024/04/04 08:14:14;;;;;;;5.17;1.30;;;13.80;99.90;;;;;;5054888;28;20696;-73
2024/04/04 08:16:39;;;;;;;3.43;1.30;;;13.70;99.90;;;;;;5055123;28;20732;-73
2024/04/04 08:19:07;;;;;;;4.13;1.47;;;13.70;99.90;;;;;;5054723;28;20298;-73
2024/04/04 08:21:33;;;;;;;2.67;1.17;;;13.80;99.90;;;;;;5054838;28;20212;-73
2024/04/04 08:24:00;;;;;;;5.00;1.37;;;13.90;99.90;;;;;;5054665;28;20691;-73
2024/04/04 08:26:26;;;;;;;3.10;1.10;;;13.90;99.90;;;;;;5054221;28;20212;-73
2024/04/04 08:28:52;;;;;;;4.60;1.57;;;13.90;99.90;;;;;;5054672;28;20295;-73
2024/04/04 08:31:20;;;;;;;3.40;1.13;;;13.90;99.90;;;;;;5054592;28;20228;-73
2024/04/04 08:33:47;;;;;;;5.53;1.20;;;13.90;99.90;;;;;;5054812;28;20261;-73
2024/04/04 08:36:14;;;;;;;5.80;1.80;;;13.90;99.90;;;;;;5054157;28;20262;-73
2024/04/04 08:38:41;;;;;;;5.13;1.27;;;13.90;99.90;;;;;;5054450;28;20204;-73
2024/04/04 08:41:09;;;;;;;5.10;1.67;;;14.00;99.90;;;;;;5054120;28;20776;-72
2024/04/04 08:43:37;;;;;;;4.23;1.00;;;14.00;99.90;;;;;;5054456;28;20204;-73
2024/04/04 08:46:06;;;;;;;3.27;1.17;;;14.00;99.90;;;;;;5054306;28;20307;-73
2024/04/04 08:48:35;;;;;;;2.57;0.97;;;14.00;99.90;;;;;;5054433;28;20257;-73
2024/04/04 08:51:01;;;;;;;2.97;1.00;;;13.90;99.90;;;;;;5054129;28;20246;-73
2024/04/04 08:53:28;;;;;;;3.13;1.00;;;13.80;99.90;;;;;;5053918;28;20554;-73
2024/04/04 08:55:55;;;;;;;2.67;1.10;;;13.60;99.90;;;;;;5054185;28;20574;-73
2024/04/04 08:58:23;;;;;;;4.13;1.23;;;13.40;99.90;;;;;;5053895;28;20304;-72
2024/04/04 09:00:49;;;;;;;4.13;1.30;;;13.30;99.90;;;;;;5054509;28;20232;-73
2024/04/04 09:03:17;;;;;;;3.43;1.20;;;13.20;99.90;;;;;;5053690;28;20204;-73
2024/04/04 09:05:45;;;;;;;5.63;1.40;;;13.20;99.90;;;;;;5053847;28;20223;-73
2024/04/04 09:08:13;;;;;;;7.20;2.00;;;13.20;99.90;;;;;;5054027;28;20216;-73
2024/04/04 09:10:39;;;;;;;3.40;1.20;;;13.20;99.90;;;;;;5053609;28;20779;-73
2024/04/04 09:13:07;;;;;;;5.60;1.20;;;13.20;99.90;;;;;;5053667;28;20211;-73
2024/04/04 09:15:36;;;;;;;5.10;1.20;;;13.30;99.90;;;;;;5053462;28;20684;-73
2024/04/04 09:18:04;;;;;;;3.77;1.57;;;13.30;99.90;;;;;;5053776;28;20257;-73
2024/04/04 09:20:31;;;;;;;3.53;1.23;;;13.30;99.90;;;;;;5053195;28;20227;-73
2024/04/04 09:23:01;;;;;;;2.57;1.23;;;13.30;99.90;;;;;;5053679;28;20211;-73
2024/04/04 09:25:27;;;;;;;2.47;0.97;;;13.30;99.90;;;;;;5053466;28;20314;-73
2024/04/04 09:27:53;;;;;;;5.03;1.27;;;13.30;99.90;;;;;;5053524;28;20307;-73
2024/04/04 09:30:23;;;;;;;3.03;1.07;;;13.30;99.90;;;;;;5053268;28;20314;-73
2024/04/04 09:32:50;;;;;;;3.17;1.30;;;13.20;99.90;;;;;;5053485;28;20208;-73
2024/04/04 09:35:16;;;;;;;3.83;1.67;;;13.20;99.90;;;;;;5053480;28;20299;-73
2024/04/04 09:37:45;;;;;;;5.93;2.40;;;13.30;99.90;;;;;;5053364;28;20247;-73
2024/04/04 09:40:13;;;;;;;4.53;1.90;;;13.30;99.90;;;;;;5052793;28;20316;-73
2024/04/04 09:42:41;;;;;;;6.67;1.80;;;13.30;99.90;;;;;;5053969;28;20208;-73
2024/04/04 09:45:08;;;;;;;4.77;1.57;;;13.30;99.90;;;;;;5053044;28;20235;-73
2024/04/04 09:47:39;;;;;;;1.50;1.40;;;13.30;99.90;;;;;;5052856;28;20208;-73
2024/04/04 09:50:05;;;;;;;2.40;1.30;;;13.30;99.90;;;;;;5052896;28;20240;-73
2024/04/04 09:52:34;;;;;;;3.80;1.37;;;13.30;99.90;;;;;;5053120;28;20208;-72
2024/04/04 09:55:00;;;;;;;2.77;1.27;;;13.20;99.90;;;;;;5053305;28;20745;-72
2024/04/04 09:57:29;;;;;;;2.97;1.43;;;13.20;99.90;;;;;;5053106;28;20204;-73
2024/04/04 10:00:14;;;;;;;4.13;1.33;;;13.20;99.90;;;;;;5053589;28;20321;-73
2024/04/04 10:02:46;;;;;;;2.27;1.40;;;13.20;99.90;;;;;;5053171;28;20624;-73
2024/04/04 10:05:17;;;;;;;6.80;1.60;;;13.20;99.90;;;;;;5055269;28;20223;-73
2024/04/04 10:07:45;;;;;;;4.13;1.70;;;13.20;99.90;;;;;;5057110;28;20547;-73
2024/04/04 10:10:16;;;;;;;5.20;1.20;;;13.20;99.90;;;;;;5057060;28;20231;-73
2024/04/04 10:12:45;;;;;;;2.60;1.73;;;13.20;99.90;;;;;;5057222;28;20204;-73
2024/04/04 10:15:16;;;;;;;3.43;1.43;;;13.20;99.90;;;;;;5056906;28;20212;-73
2024/04/04 10:17:45;;;;;;;4.33;1.17;;;13.20;99.90;;;;;;5056808;28;20634;-73
2024/04/04 10:20:12;;;;;;;5.33;1.60;;;13.20;99.90;;;;;;5057064;28;20240;-73
2024/04/04 10:22:39;;;;;;;3.20;1.30;;;13.20;99.90;;;;;;5056942;28;20204;-73
2024/04/04 10:25:05;;;;;;;2.40;1.10;;;13.20;99.90;;;;;;5057086;28;20228;-73
2024/04/04 10:27:32;;;;;;;2.00;1.10;;;13.20;99.90;;;;;;5056868;28;20662;-73
2024/04/04 10:29:59;;;;;;;4.73;1.40;;;13.20;99.90;;;;;;5056922;28;20311;-73
2024/04/04 10:32:29;;;;;;;3.13;1.40;;;13.20;99.90;;;;;;5056769;28;20688;-73
2024/04/04 10:35:04;;;;;;;2.63;1.13;;;13.10;99.90;;;;;;5057066;28;20586;-73
2024/04/04 10:37:31;;;;;;;4.57;1.50;;;13.20;99.90;;;;;;5056655;28;20749;-73
2024/04/04 10:39:57;;;;;;;7.27;1.60;;;13.20;99.90;;;;;;5056711;28;20311;-73
2024/04/04 10:42:25;;;;;;;5.63;1.60;;;13.20;99.90;;;;;;5056337;28;20295;-73
2024/04/04 10:44:52;;;;;;;2.70;1.20;;;13.20;99.90;;;;;;5056536;28;20228;-73
2024/04/04 10:47:20;;;;;;;1.80;1.07;;;13.20;99.90;;;;;;5056629;28;20207;-73
2024/04/04 10:49:46;;;;;;;3.83;1.33;;;13.20;99.90;;;;;;5056118;28;20247;-73
2024/04/04 10:52:15;;;;;;;5.00;1.37;;;13.20;99.90;;;;;;5056541;28;20191;-73
2024/04/04 10:54:41;;;;;;;5.57;1.50;;;13.20;99.90;;;;;;5056877;28;20295;-73
2024/04/04 10:57:09;;;;;;;1.87;1.00;;;13.30;99.90;;;;;;5056598;28;20549;-73
2024/04/04 10:59:34;;;;;;;3.77;1.43;;;13.30;99.90;;;;;;5056211;28;20662;-73
2024/04/04 11:02:07;;;;;;;4.10;1.67;;;13.50;99.90;;;;;;5056282;28;20736;-73
2024/04/04 11:04:35;;;;;;;3.43;1.27;;;13.40;99.90;;;;;;5056900;28;20228;-73
2024/04/04 11:07:05;;;;;;;3.17;1.53;;;13.50;99.90;;;;;;5056468;28;20219;-73
2024/04/04 11:09:31;;;;;;;3.07;1.20;;;13.60;99.90;;;;;;5056666;28;20230;-73
2024/04/04 11:12:01;;;;;;;1.80;1.20;;;13.60;99.90;;;;;;5056159;28;20287;-73
2024/04/04 11:14:27;;;;;;;3.07;1.30;;;13.50;99.90;;;;;;5056276;28;20291;-73
2024/04/04 11:16:55;;;;;;;4.60;1.20;;;13.50;99.90;;;;;;5055973;28;20290;-73
2024/04/04 11:19:22;;;;;;;3.57;1.20;;;13.50;99.90;;;;;;5055878;28;20216;-74
2024/04/04 11:21:50;;;;;;;5.23;1.00;;;13.50;99.90;;;;;;5055997;28;20259;-74
2024/04/04 11:24:16;;;;;;;2.73;1.00;;;13.60;99.90;;;;;;5055894;28;20215;-74
2024/04/04 11:26:43;;;;;;;2.37;1.20;;;13.60;99.90;;;;;;5056023;28;20688;-73
2024/04/04 11:29:09;;;;;;;4.43;1.50;;;13.60;99.90;;;;;;5055431;28;20266;-72
2024/04/04 11:31:36;;;;;;;4.57;1.23;;;13.60;99.90;;;;;;5055458;28;20230;-72
2024/04/04 11:34:03;;;;;;;3.40;1.40;;;13.60;99.90;;;;;;5055618;28;20232;-72
2024/04/04 11:36:30;;;;;;;4.43;1.27;;;13.70;99.90;;;;;;5055320;28;20200;-72
2024/04/04 11:38:57;;;;;;;2.63;0.90;;;13.80;99.90;;;;;;5055320;28;20670;-72
2024/04/04 11:41:24;;;;;;;5.50;0.93;;;13.80;99.90;;;;;;5055468;28;20350;-72
2024/04/04 11:43:50;;;;;;;3.43;1.00;;;13.80;99.90;;;;;;5055574;28;20291;-71
2024/04/04 11:46:17;;;;;;;3.47;1.00;;;13.80;99.90;;;;;;5055598;28;20315;-72
2024/04/04 11:48:44;;;;;;;4.10;1.17;;;13.80;99.90;;;;;;5055405;28;20208;-72
2024/04/04 11:51:11;;;;;;;2.50;1.20;;;13.80;99.90;;;;;;5054987;28;20235;-72
2024/04/04 11:53:37;;;;;;;2.93;1.20;;;13.90;99.90;;;;;;5055343;28;20303;-72
2024/04/04 11:56:06;;;;;;;5.07;1.40;;;13.80;99.90;;;;;;5055526;28;20287;-72
2024/04/04 11:58:34;;;;;;;1.80;1.37;;;13.90;99.90;;;;;;5055132;28;20216;-72
2024/04/04 12:01:02;;;;;;;1.70;1.10;;;13.80;99.90;;;;;;5054760;28;20638;-72
2024/04/04 12:03:28;;;;;;;2.80;1.30;;;13.70;99.90;;;;;;5054760;28;20518;-72
2024/04/04 12:05:55;;;;;;;2.97;1.07;;;13.70;99.90;;;;;;5054638;28;20804;-72
2024/04/04 12:08:21;;;;;;;2.23;1.00;;;13.70;99.90;;;;;;5054957;28;20395;-72
2024/04/04 12:10:48;;;;;;;4.13;1.30;;;13.80;99.90;;;;;;5054998;28;20377;-72
2024/04/04 12:13:15;;;;;;;2.73;0.77;;;13.80;99.90;;;;;;5054533;28;20251;-72
2024/04/04 12:15:48;;;;;;;2.00;1.10;;;13.90;99.90;;;;;;5054837;28;20212;-72
2024/04/04 12:21:00;;;;;;;4.75;1.20;;;14.00;99.90;;;;;;5054624;28;20230;-72
2024/04/04 12:23:26;;;;;;;3.42;1.15;;;14.00;99.90;;;;;;5054512;28;20209;-72
2024/04/04 12:25:53;;;;;;;3.50;1.07;;;14.00;99.90;;;;;;5054269;28;20323;-72
2024/04/04 12:28:22;;;;;;;3.43;1.27;;;14.00;99.90;;;;;;5053623;28;20291;-72
2024/04/04 12:30:48;;;;;;;1.95;0.82;;;14.10;99.90;;;;;;5054283;28;20231;-72
2024/04/04 12:33:14;;;;;;;2.03;1.40;;;14.10;99.90;;;;;;5054022;28;20300;-73
2024/04/04 12:35:41;;;;;;;2.33;1.00;;;14.00;99.90;;;;;;5054400;28;20291;-73
2024/04/04 12:38:07;;;;;;;2.50;1.00;;;14.10;99.90;;;;;;5054477;28;20295;-73
2024/04/04 12:40:34;;;;;;;3.10;1.10;;;14.00;99.90;;;;;;5054021;28;20303;-73
2024/04/04 12:43:00;;;;;;;3.67;1.13;;;14.10;99.90;;;;;;5054152;28;20204;-73
2024/04/04 12:45:28;;;;;;;2.40;0.98;;;14.10;99.90;;;;;;5053866;28;20227;-73
2024/04/04 12:47:55;;;;;;;1.40;0.82;;;14.10;99.90;;;;;;5053934;28;20216;-72
2024/04/04 12:50:24;;;;;;;2.28;0.73;;;14.10;99.90;;;;;;5053608;28;20323;-72